sensor_id;sensor_type;location;lat;lon;timestamp;temperature;humidity
45409;DHT22;31162;51.076;3.784;2023-01-06T00:00:21;12.20;99.90
45409;DHT22;31162;51.076;3.784;2023-01-06T00:02:47;12.30;99.90
45409;DHT22;31162;51.076;3.784;2023-01-06T00:05:13;12.20;99.90
45409;DHT22;31162;51.076;3.784;2023-01-06T00:07:39;12.30;99.90
45409;DHT22;31162;51.076;3.784;2023-01-06T00:10:06;12.30;99.90
45409;DHT22;31162;51.076;3.784;2023-01-06T00:12:32;12.20;99.90
45409;DHT22;31162;51.076;3.784;2023-01-06T00:14:59;12.30;99.90
45409;DHT22;31162;51.076;3.784;2023-01-06T00:17:25;12.20;99.90
45409;DHT22;31162;51.076;3.784;2023-01-06T00:19:50;12.20;99.90
45409;DHT22;31162;51.076;3.784;2023-01-06T00:22:16;12.30;99.90
45409;DHT22;31162;51.076;3.784;2023-01-06T00:24:42;12.30;99.90
45409;DHT22;31162;51.076;3.784;2023-01-06T00:27:08;12.20;99.90
45409;DHT22;31162;51.076;3.784;2023-01-06T00:29:34;12.20;99.90
45409;DHT22;31162;51.076;3.784;2023-01-06T00:32:00;12.10;99.90
45409;DHT22;31162;51.076;3.784;2023-01-06T00:34:27;12.10;99.90
45409;DHT22;31162;51.076;3.784;2023-01-06T00:36:53;12.10;99.90
45409;DHT22;31162;51.076;3.784;2023-01-06T00:39:19;12.10;99.90
45409;DHT22;31162;51.076;3.784;2023-01-06T00:41:45;12.10;99.90
45409;DHT22;31162;51.076;3.784;2023-01-06T00:44:30;12.10;99.90
45409;DHT22;31162;51.076;3.784;2023-01-06T00:46:56;12.00;99.90
45409;DHT22;31162;51.076;3.784;2023-01-06T00:49:21;11.90;99.90
45409;DHT22;31162;51.076;3.784;2023-01-06T00:51:47;11.90;99.90
45409;DHT22;31162;51.076;3.784;2023-01-06T00:54:14;11.90;99.90
45409;DHT22;31162;51.076;3.784;2023-01-06T00:56:44;11.90;99.90
45409;DHT22;31162;51.076;3.784;2023-01-06T00:59:12;12.00;99.90
45409;DHT22;31162;51.076;3.784;2023-01-06T01:01:38;12.10;99.90
45409;DHT22;31162;51.076;3.784;2023-01-06T01:04:04;12.10;99.90
45409;DHT22;31162;51.076;3.784;2023-01-06T01:06:30;12.10;99.90
45409;DHT22;31162;51.076;3.784;2023-01-06T01:08:57;12.00;99.90
45409;DHT22;31162;51.076;3.784;2023-01-06T01:11:24;12.10;99.90
45409;DHT22;31162;51.076;3.784;2023-01-06T01:14:19;12.00;99.90
45409;DHT22;31162;51.076;3.784;2023-01-06T01:16:45;12.00;99.90
45409;DHT22;31162;51.076;3.784;2023-01-06T01:19:11;12.00;99.90
45409;DHT22;31162;51.076;3.784;2023-01-06T01:21:37;12.00;99.90
45409;DHT22;31162;51.076;3.784;2023-01-06T01:24:04;12.00;99.90
45409;DHT22;31162;51.076;3.784;2023-01-06T01:26:29;11.90;99.90
45409;DHT22;31162;51.076;3.784;2023-01-06T01:28:55;12.00;99.90
45409;DHT22;31162;51.076;3.784;2023-01-06T01:31:21;12.00;99.90
45409;DHT22;31162;51.076;3.784;2023-01-06T01:33:47;11.90;99.90
45409;DHT22;31162;51.076;3.784;2023-01-06T01:36:15;11.90;99.90
45409;DHT22;31162;51.076;3.784;2023-01-06T01:38:41;12.00;99.90
45409;DHT22;31162;51.076;3.784;2023-01-06T01:41:11;12.00;99.90
45409;DHT22;31162;51.076;3.784;2023-01-06T01:44:52;12.00;99.90
45409;DHT22;31162;51.076;3.784;2023-01-06T01:46:37;11.90;99.90
45409;DHT22;31162;51.076;3.784;2023-01-06T01:49:08;12.00;99.90
45409;DHT22;31162;51.076;3.784;2023-01-06T01:51:42;11.90;99.90
45409;DHT22;31162;51.076;3.784;2023-01-06T01:54:08;11.80;99.90
45409;DHT22;31162;51.076;3.784;2023-01-06T01:56:36;11.70;99.90
45409;DHT22;31162;51.076;3.784;2023-01-06T01:59:13;11.80;99.90
45409;DHT22;31162;51.076;3.784;2023-01-06T02:01:40;11.90;99.90
45409;DHT22;31162;51.076;3.784;2023-01-06T02:04:07;11.80;99.90
45409;DHT22;31162;51.076;3.784;2023-01-06T02:06:33;11.80;99.90
45409;DHT22;31162;51.076;3.784;2023-01-06T02:09:06;11.80;99.90
45409;DHT22;31162;51.076;3.784;2023-01-06T02:11:35;11.80;99.90
45409;DHT22;31162;51.076;3.784;2023-01-06T02:14:10;11.80;99.90
45409;DHT22;31162;51.076;3.784;2023-01-06T02:28:04;11.90;99.90
45409;DHT22;31162;51.076;3.784;2023-01-06T02:30:55;12.00;99.90
45409;DHT22;31162;51.076;3.784;2023-01-06T02:33:31;12.00;99.90
45409;DHT22;31162;51.076;3.784;2023-01-06T02:39:13;12.10;99.90
45409;DHT22;31162;51.076;3.784;2023-01-06T02:47:45;11.90;99.90
45409;DHT22;31162;51.076;3.784;2023-01-06T02:50:40;11.90;99.90
45409;DHT22;31162;51.076;3.784;2023-01-06T02:55:50;12.00;99.90
45409;DHT22;31162;51.076;3.784;2023-01-06T03:01:13;11.70;99.90
45409;DHT22;31162;51.076;3.784;2023-01-06T03:03:43;11.80;99.90
45409;DHT22;31162;51.076;3.784;2023-01-06T03:06:16;11.70;99.90
45409;DHT22;31162;51.076;3.784;2023-01-06T03:08:45;11.60;99.90
45409;DHT22;31162;51.076;3.784;2023-01-06T03:11:12;11.60;99.90
45409;DHT22;31162;51.076;3.784;2023-01-06T03:16:18;11.50;99.90
45409;DHT22;31162;51.076;3.784;2023-01-06T03:18:47;11.60;99.90
45409;DHT22;31162;51.076;3.784;2023-01-06T03:21:17;11.50;99.90
45409;DHT22;31162;51.076;3.784;2023-01-06T03:23:44;11.50;99.90
45409;DHT22;31162;51.076;3.784;2023-01-06T03:26:10;11.30;99.90
45409;DHT22;31162;51.076;3.784;2023-01-06T03:28:36;11.30;99.90
45409;DHT22;31162;51.076;3.784;2023-01-06T03:31:21;11.30;99.90
45409;DHT22;31162;51.076;3.784;2023-01-06T03:36:53;11.50;99.90
45409;DHT22;31162;51.076;3.784;2023-01-06T03:39:34;11.50;99.90
45409;DHT22;31162;51.076;3.784;2023-01-06T03:50:51;11.50;99.90
45409;DHT22;31162;51.076;3.784;2023-01-06T03:56:05;11.50;99.90
45409;DHT22;31162;51.076;3.784;2023-01-06T03:58:34;11.50;99.90
45409;DHT22;31162;51.076;3.784;2023-01-06T04:01:02;11.50;99.90
45409;DHT22;31162;51.076;3.784;2023-01-06T04:03:28;11.50;99.90
45409;DHT22;31162;51.076;3.784;2023-01-06T04:05:54;11.60;99.90
45409;DHT22;31162;51.076;3.784;2023-01-06T04:08:20;11.60;99.90
45409;DHT22;31162;51.076;3.784;2023-01-06T04:10:46;11.70;99.90
45409;DHT22;31162;51.076;3.784;2023-01-06T04:13:11;11.70;99.90
45409;DHT22;31162;51.076;3.784;2023-01-06T04:15:37;11.60;99.90
45409;DHT22;31162;51.076;3.784;2023-01-06T04:18:03;11.50;99.90
45409;DHT22;31162;51.076;3.784;2023-01-06T04:20:29;11.40;99.90
45409;DHT22;31162;51.076;3.784;2023-01-06T04:22:56;11.40;99.90
45409;DHT22;31162;51.076;3.784;2023-01-06T04:25:23;11.40;99.90
45409;DHT22;31162;51.076;3.784;2023-01-06T04:27:49;11.40;99.90
45409;DHT22;31162;51.076;3.784;2023-01-06T04:30:15;11.30;99.90
45409;DHT22;31162;51.076;3.784;2023-01-06T04:32:41;11.30;99.90
45409;DHT22;31162;51.076;3.784;2023-01-06T04:35:08;11.20;99.90
45409;DHT22;31162;51.076;3.784;2023-01-06T04:37:34;11.20;99.90
45409;DHT22;31162;51.076;3.784;2023-01-06T04:40:00;11.40;99.90
45409;DHT22;31162;51.076;3.784;2023-01-06T04:42:25;11.40;99.90
45409;DHT22;31162;51.076;3.784;2023-01-06T04:44:51;11.50;99.90
45409;DHT22;31162;51.076;3.784;2023-01-06T04:47:17;11.60;99.90
45409;DHT22;31162;51.076;3.784;2023-01-06T04:49:42;11.60;99.90
45409;DHT22;31162;51.076;3.784;2023-01-06T04:52:08;11.70;99.90
45409;DHT22;31162;51.076;3.784;2023-01-06T04:54:34;11.70;99.90
45409;DHT22;31162;51.076;3.784;2023-01-06T04:57:00;11.70;99.90
45409;DHT22;31162;51.076;3.784;2023-01-06T04:59:26;11.60;99.90
45409;DHT22;31162;51.076;3.784;2023-01-06T05:01:52;11.60;99.90
45409;DHT22;31162;51.076;3.784;2023-01-06T05:04:18;11.60;99.90
45409;DHT22;31162;51.076;3.784;2023-01-06T05:06:44;11.70;99.90
45409;DHT22;31162;51.076;3.784;2023-01-06T05:09:10;11.70;99.90
45409;DHT22;31162;51.076;3.784;2023-01-06T05:11:36;11.80;99.90
45409;DHT22;31162;51.076;3.784;2023-01-06T05:14:02;11.80;99.90
45409;DHT22;31162;51.076;3.784;2023-01-06T05:16:30;11.70;99.90
45409;DHT22;31162;51.076;3.784;2023-01-06T05:18:57;11.70;99.90
45409;DHT22;31162;51.076;3.784;2023-01-06T05:21:24;11.70;99.90
45409;DHT22;31162;51.076;3.784;2023-01-06T05:23:50;11.70;99.90
45409;DHT22;31162;51.076;3.784;2023-01-06T05:26:19;11.90;99.90
45409;DHT22;31162;51.076;3.784;2023-01-06T05:28:45;11.80;99.90
45409;DHT22;31162;51.076;3.784;2023-01-06T05:31:11;11.80;99.90
45409;DHT22;31162;51.076;3.784;2023-01-06T05:33:37;11.80;99.90
45409;DHT22;31162;51.076;3.784;2023-01-06T05:36:06;11.80;99.90
45409;DHT22;31162;51.076;3.784;2023-01-06T05:38:32;11.90;99.90
45409;DHT22;31162;51.076;3.784;2023-01-06T05:40:58;11.80;99.90
45409;DHT22;31162;51.076;3.784;2023-01-06T05:43:25;11.70;99.90
45409;DHT22;31162;51.076;3.784;2023-01-06T05:45:52;11.70;99.90
45409;DHT22;31162;51.076;3.784;2023-01-06T05:48:18;11.70;99.90
45409;DHT22;31162;51.076;3.784;2023-01-06T05:50:44;11.70;99.90
45409;DHT22;31162;51.076;3.784;2023-01-06T05:53:10;11.60;99.90
45409;DHT22;31162;51.076;3.784;2023-01-06T05:55:35;11.70;99.90
45409;DHT22;31162;51.076;3.784;2023-01-06T05:58:01;11.60;99.90
45409;DHT22;31162;51.076;3.784;2023-01-06T06:00:27;11.50;99.90
45409;DHT22;31162;51.076;3.784;2023-01-06T06:02:54;11.50;99.90
45409;DHT22;31162;51.076;3.784;2023-01-06T06:05:20;11.60;99.90
45409;DHT22;31162;51.076;3.784;2023-01-06T06:07:52;11.50;99.90
45409;DHT22;31162;51.076;3.784;2023-01-06T06:10:18;11.60;99.90
45409;DHT22;31162;51.076;3.784;2023-01-06T06:12:44;11.60;99.90
45409;DHT22;31162;51.076;3.784;2023-01-06T06:15:10;11.70;99.90
45409;DHT22;31162;51.076;3.784;2023-01-06T06:17:35;11.70;99.90
45409;DHT22;31162;51.076;3.784;2023-01-06T06:20:01;11.70;99.90
45409;DHT22;31162;51.076;3.784;2023-01-06T06:22:27;11.70;99.90
45409;DHT22;31162;51.076;3.784;2023-01-06T06:24:53;11.80;99.90
45409;DHT22;31162;51.076;3.784;2023-01-06T06:27:19;11.80;99.90
45409;DHT22;31162;51.076;3.784;2023-01-06T06:29:44;11.70;99.90
45409;DHT22;31162;51.076;3.784;2023-01-06T06:32:10;11.80;99.90
45409;DHT22;31162;51.076;3.784;2023-01-06T06:34:36;11.70;99.90
45409;DHT22;31162;51.076;3.784;2023-01-06T06:37:01;11.70;99.90
45409;DHT22;31162;51.076;3.784;2023-01-06T06:39:27;11.70;99.90
45409;DHT22;31162;51.076;3.784;2023-01-06T06:41:53;11.70;99.90
45409;DHT22;31162;51.076;3.784;2023-01-06T06:44:19;11.70;99.90
45409;DHT22;31162;51.076;3.784;2023-01-06T06:46:44;11.70;99.90
45409;DHT22;31162;51.076;3.784;2023-01-06T06:49:10;11.60;99.90
45409;DHT22;31162;51.076;3.784;2023-01-06T06:51:36;11.50;99.90
45409;DHT22;31162;51.076;3.784;2023-01-06T06:54:02;11.50;99.90
45409;DHT22;31162;51.076;3.784;2023-01-06T06:56:28;11.40;99.90
45409;DHT22;31162;51.076;3.784;2023-01-06T06:58:53;11.30;99.90
45409;DHT22;31162;51.076;3.784;2023-01-06T07:01:19;11.30;99.90
45409;DHT22;31162;51.076;3.784;2023-01-06T07:03:47;11.30;99.90
45409;DHT22;31162;51.076;3.784;2023-01-06T07:06:16;11.30;99.90
45409;DHT22;31162;51.076;3.784;2023-01-06T07:08:47;11.30;99.90
45409;DHT22;31162;51.076;3.784;2023-01-06T07:11:13;11.30;99.90
45409;DHT22;31162;51.076;3.784;2023-01-06T07:13:39;11.30;99.90
45409;DHT22;31162;51.076;3.784;2023-01-06T07:16:05;11.40;99.90
45409;DHT22;31162;51.076;3.784;2023-01-06T07:18:31;11.40;99.90
45409;DHT22;31162;51.076;3.784;2023-01-06T07:20:57;11.40;99.90
45409;DHT22;31162;51.076;3.784;2023-01-06T07:23:23;11.40;99.90
45409;DHT22;31162;51.076;3.784;2023-01-06T07:25:54;11.30;99.90
45409;DHT22;31162;51.076;3.784;2023-01-06T07:28:20;11.20;99.90
45409;DHT22;31162;51.076;3.784;2023-01-06T07:30:46;11.20;99.90
45409;DHT22;31162;51.076;3.784;2023-01-06T07:33:12;11.20;99.90
45409;DHT22;31162;51.076;3.784;2023-01-06T07:35:38;11.20;99.90
45409;DHT22;31162;51.076;3.784;2023-01-06T07:38:04;11.20;99.90
45409;DHT22;31162;51.076;3.784;2023-01-06T07:40:30;11.20;99.90
45409;DHT22;31162;51.076;3.784;2023-01-06T07:42:56;11.30;99.90
45409;DHT22;31162;51.076;3.784;2023-01-06T07:45:22;11.40;99.90
45409;DHT22;31162;51.076;3.784;2023-01-06T07:47:48;11.40;99.90
45409;DHT22;31162;51.076;3.784;2023-01-06T07:50:13;11.40;99.90
45409;DHT22;31162;51.076;3.784;2023-01-06T07:52:39;11.40;99.90
45409;DHT22;31162;51.076;3.784;2023-01-06T07:55:05;11.50;99.90
45409;DHT22;31162;51.076;3.784;2023-01-06T07:57:31;11.40;99.90
45409;DHT22;31162;51.076;3.784;2023-01-06T07:59:57;11.50;99.90
45409;DHT22;31162;51.076;3.784;2023-01-06T08:02:22;11.50;99.90
45409;DHT22;31162;51.076;3.784;2023-01-06T08:04:48;11.60;99.90
45409;DHT22;31162;51.076;3.784;2023-01-06T08:07:16;11.60;99.90
45409;DHT22;31162;51.076;3.784;2023-01-06T08:09:42;11.50;99.90
45409;DHT22;31162;51.076;3.784;2023-01-06T08:12:07;11.50;99.90
45409;DHT22;31162;51.076;3.784;2023-01-06T08:14:33;11.50;99.90
45409;DHT22;31162;51.076;3.784;2023-01-06T08:16:59;11.40;99.90
45409;DHT22;31162;51.076;3.784;2023-01-06T08:19:25;11.50;99.90
45409;DHT22;31162;51.076;3.784;2023-01-06T08:21:50;11.50;99.90
45409;DHT22;31162;51.076;3.784;2023-01-06T08:24:16;11.50;99.90
45409;DHT22;31162;51.076;3.784;2023-01-06T08:26:41;11.70;99.90
45409;DHT22;31162;51.076;3.784;2023-01-06T08:29:07;11.70;99.90
45409;DHT22;31162;51.076;3.784;2023-01-06T08:31:33;11.80;99.90
45409;DHT22;31162;51.076;3.784;2023-01-06T08:33:59;11.80;99.90
45409;DHT22;31162;51.076;3.784;2023-01-06T08:36:25;11.80;99.90
45409;DHT22;31162;51.076;3.784;2023-01-06T08:38:51;11.70;99.90
45409;DHT22;31162;51.076;3.784;2023-01-06T08:41:17;11.80;99.90
45409;DHT22;31162;51.076;3.784;2023-01-06T08:43:44;11.80;99.90
45409;DHT22;31162;51.076;3.784;2023-01-06T08:46:15;11.80;99.90
45409;DHT22;31162;51.076;3.784;2023-01-06T08:48:41;11.80;99.90
45409;DHT22;31162;51.076;3.784;2023-01-06T08:51:12;11.80;99.90
45409;DHT22;31162;51.076;3.784;2023-01-06T08:53:38;11.80;99.90
45409;DHT22;31162;51.076;3.784;2023-01-06T08:56:11;12.00;99.90
45409;DHT22;31162;51.076;3.784;2023-01-06T08:58:36;12.00;99.90
45409;DHT22;31162;51.076;3.784;2023-01-06T09:01:02;12.00;99.90
45409;DHT22;31162;51.076;3.784;2023-01-06T09:03:28;11.90;99.90
45409;DHT22;31162;51.076;3.784;2023-01-06T09:05:54;11.80;99.90
45409;DHT22;31162;51.076;3.784;2023-01-06T09:08:21;11.90;99.90
45409;DHT22;31162;51.076;3.784;2023-01-06T09:10:47;12.10;99.90
45409;DHT22;31162;51.076;3.784;2023-01-06T09:13:13;12.20;99.90
45409;DHT22;31162;51.076;3.784;2023-01-06T09:15:39;12.10;99.90
45409;DHT22;31162;51.076;3.784;2023-01-06T09:18:06;12.00;99.90
45409;DHT22;31162;51.076;3.784;2023-01-06T09:20:33;12.00;99.90
45409;DHT22;31162;51.076;3.784;2023-01-06T09:22:59;11.90;99.90
45409;DHT22;31162;51.076;3.784;2023-01-06T09:25:25;11.90;99.90
45409;DHT22;31162;51.076;3.784;2023-01-06T09:27:50;12.10;99.90
45409;DHT22;31162;51.076;3.784;2023-01-06T09:30:16;12.30;99.90
45409;DHT22;31162;51.076;3.784;2023-01-06T09:32:42;12.50;99.90
45409;DHT22;31162;51.076;3.784;2023-01-06T09:35:08;12.60;99.90
45409;DHT22;31162;51.076;3.784;2023-01-06T09:37:34;12.60;99.90
45409;DHT22;31162;51.076;3.784;2023-01-06T09:39:59;12.70;99.90
45409;DHT22;31162;51.076;3.784;2023-01-06T09:45:24;12.80;99.90
45409;DHT22;31162;51.076;3.784;2023-01-06T09:47:56;12.70;99.90
45409;DHT22;31162;51.076;3.784;2023-01-06T09:50:40;12.60;99.90
45409;DHT22;31162;51.076;3.784;2023-01-06T09:53:21;12.40;99.90
45409;DHT22;31162;51.076;3.784;2023-01-06T09:55:57;12.20;99.90
45409;DHT22;31162;51.076;3.784;2023-01-06T09:58:38;12.20;99.90
45409;DHT22;31162;51.076;3.784;2023-01-06T10:01:10;12.10;99.90
45409;DHT22;31162;51.076;3.784;2023-01-06T10:03:37;12.00;99.90
45409;DHT22;31162;51.076;3.784;2023-01-06T10:12:42;11.90;99.90
45409;DHT22;31162;51.076;3.784;2023-01-06T10:14:46;12.00;99.90
45409;DHT22;31162;51.076;3.784;2023-01-06T10:17:27;12.00;99.90
45409;DHT22;31162;51.076;3.784;2023-01-06T10:22:55;12.20;99.90
45409;DHT22;31162;51.076;3.784;2023-01-06T10:26:12;12.30;99.90
45409;DHT22;31162;51.076;3.784;2023-01-06T10:28:19;12.50;99.90
45409;DHT22;31162;51.076;3.784;2023-01-06T10:30:51;12.70;99.90
45409;DHT22;31162;51.076;3.784;2023-01-06T10:33:29;12.80;99.90
45409;DHT22;31162;51.076;3.784;2023-01-06T10:35:57;12.80;99.90
45409;DHT22;31162;51.076;3.784;2023-01-06T10:38:31;12.90;99.90
45409;DHT22;31162;51.076;3.784;2023-01-06T10:43:45;12.80;99.90
45409;DHT22;31162;51.076;3.784;2023-01-06T10:46:11;12.80;99.90
45409;DHT22;31162;51.076;3.784;2023-01-06T10:48:37;13.00;99.90
45409;DHT22;31162;51.076;3.784;2023-01-06T10:51:35;12.90;99.90
45409;DHT22;31162;51.076;3.784;2023-01-06T10:54:11;12.90;99.90
45409;DHT22;31162;51.076;3.784;2023-01-06T10:56:37;12.90;99.90
45409;DHT22;31162;51.076;3.784;2023-01-06T10:59:09;12.80;99.90
45409;DHT22;31162;51.076;3.784;2023-01-06T11:01:53;13.10;99.90
45409;DHT22;31162;51.076;3.784;2023-01-06T11:04:20;13.30;99.90
45409;DHT22;31162;51.076;3.784;2023-01-06T11:07:00;13.20;99.90
45409;DHT22;31162;51.076;3.784;2023-01-06T11:12:07;13.40;99.90
45409;DHT22;31162;51.076;3.784;2023-01-06T11:14:34;13.40;99.90
45409;DHT22;31162;51.076;3.784;2023-01-06T11:17:03;13.40;99.90
45409;DHT22;31162;51.076;3.784;2023-01-06T11:19:41;13.40;99.90
45409;DHT22;31162;51.076;3.784;2023-01-06T11:22:30;13.60;99.90
45409;DHT22;31162;51.076;3.784;2023-01-06T11:24:58;13.70;99.90
45409;DHT22;31162;51.076;3.784;2023-01-06T11:27:23;13.60;99.90
45409;DHT22;31162;51.076;3.784;2023-01-06T11:29:49;13.40;99.90
45409;DHT22;31162;51.076;3.784;2023-01-06T11:32:23;13.70;99.90
45409;DHT22;31162;51.076;3.784;2023-01-06T11:35:02;13.90;99.90
45409;DHT22;31162;51.076;3.784;2023-01-06T11:39:59;14.30;99.90
45409;DHT22;31162;51.076;3.784;2023-01-06T11:42:25;14.30;99.90
45409;DHT22;31162;51.076;3.784;2023-01-06T11:44:51;14.30;99.90
45409;DHT22;31162;51.076;3.784;2023-01-06T11:47:23;14.30;99.90
45409;DHT22;31162;51.076;3.784;2023-01-06T11:49:52;14.40;99.90
45409;DHT22;31162;51.076;3.784;2023-01-06T11:52:29;14.60;99.90
45409;DHT22;31162;51.076;3.784;2023-01-06T11:55:07;14.70;99.90
45409;DHT22;31162;51.076;3.784;2023-01-06T12:01:08;14.80;99.90
45409;DHT22;31162;51.076;3.784;2023-01-06T12:03:43;14.80;99.90
45409;DHT22;31162;51.076;3.784;2023-01-06T12:11:28;14.40;99.90
45409;DHT22;31162;51.076;3.784;2023-01-06T12:13:56;14.20;99.90
45409;DHT22;31162;51.076;3.784;2023-01-06T12:16:36;14.10;99.90
45409;DHT22;31162;51.076;3.784;2023-01-06T12:19:17;14.10;99.90
45409;DHT22;31162;51.076;3.784;2023-01-06T12:21:44;13.80;99.90
45409;DHT22;31162;51.076;3.784;2023-01-06T12:24:13;13.90;99.90
45409;DHT22;31162;51.076;3.784;2023-01-06T12:26:42;13.70;99.90
45409;DHT22;31162;51.076;3.784;2023-01-06T12:29:13;13.90;99.90
45409;DHT22;31162;51.076;3.784;2023-01-06T12:31:46;13.90;99.90
45409;DHT22;31162;51.076;3.784;2023-01-06T12:39:53;14.00;99.90
45409;DHT22;31162;51.076;3.784;2023-01-06T12:42:27;13.90;99.90
45409;DHT22;31162;51.076;3.784;2023-01-06T12:45:00;13.80;99.90
45409;DHT22;31162;51.076;3.784;2023-01-06T12:47:38;13.60;99.90
45409;DHT22;31162;51.076;3.784;2023-01-06T12:53:13;13.30;99.90
45409;DHT22;31162;51.076;3.784;2023-01-06T12:55:45;13.50;99.90
45409;DHT22;31162;51.076;3.784;2023-01-06T13:00:59;13.50;99.90
45409;DHT22;31162;51.076;3.784;2023-01-06T13:04:02;13.40;99.90
45409;DHT22;31162;51.076;3.784;2023-01-06T13:06:37;13.30;99.90
45409;DHT22;31162;51.076;3.784;2023-01-06T13:17:53;13.00;99.90
45409;DHT22;31162;51.076;3.784;2023-01-06T13:20:30;13.00;99.90
45409;DHT22;31162;51.076;3.784;2023-01-06T13:25:39;13.40;99.90
45409;DHT22;31162;51.076;3.784;2023-01-06T13:31:07;14.00;99.90
45409;DHT22;31162;51.076;3.784;2023-01-06T13:38:57;14.40;99.90
45409;DHT22;31162;51.076;3.784;2023-01-06T13:41:32;14.40;99.90
45409;DHT22;31162;51.076;3.784;2023-01-06T13:44:02;14.50;99.90
45409;DHT22;31162;51.076;3.784;2023-01-06T13:46:29;14.60;99.90
45409;DHT22;31162;51.076;3.784;2023-01-06T13:48:59;14.50;99.90
45409;DHT22;31162;51.076;3.784;2023-01-06T13:51:31;14.30;99.90
45409;DHT22;31162;51.076;3.784;2023-01-06T13:53:58;14.20;99.90
45409;DHT22;31162;51.076;3.784;2023-01-06T13:56:34;13.90;99.90
45409;DHT22;31162;51.076;3.784;2023-01-06T13:59:18;13.80;99.90
45409;DHT22;31162;51.076;3.784;2023-01-06T14:01:44;13.80;99.90
45409;DHT22;31162;51.076;3.784;2023-01-06T14:07:00;13.80;99.90
45409;DHT22;31162;51.076;3.784;2023-01-06T14:09:27;13.70;99.90
45409;DHT22;31162;51.076;3.784;2023-01-06T14:11:53;13.60;99.90
45409;DHT22;31162;51.076;3.784;2023-01-06T14:16:49;13.50;99.90
45409;DHT22;31162;51.076;3.784;2023-01-06T14:19:36;13.50;99.90
45409;DHT22;31162;51.076;3.784;2023-01-06T14:22:14;13.50;99.90
45409;DHT22;31162;51.076;3.784;2023-01-06T14:24:50;13.40;99.90
45409;DHT22;31162;51.076;3.784;2023-01-06T14:30:32;13.30;99.90
45409;DHT22;31162;51.076;3.784;2023-01-06T14:33:04;13.30;99.90
45409;DHT22;31162;51.076;3.784;2023-01-06T14:35:45;13.20;99.90
45409;DHT22;31162;51.076;3.784;2023-01-06T14:38:28;13.20;99.90
45409;DHT22;31162;51.076;3.784;2023-01-06T14:41:04;13.30;99.90
45409;DHT22;31162;51.076;3.784;2023-01-06T14:43:45;13.30;99.90
45409;DHT22;31162;51.076;3.784;2023-01-06T14:46:18;13.20;99.90
45409;DHT22;31162;51.076;3.784;2023-01-06T14:48:56;13.20;99.90
45409;DHT22;31162;51.076;3.784;2023-01-06T14:51:23;13.10;99.90
45409;DHT22;31162;51.076;3.784;2023-01-06T14:54:21;13.10;99.90
45409;DHT22;31162;51.076;3.784;2023-01-06T14:56:59;12.90;99.90
45409;DHT22;31162;51.076;3.784;2023-01-06T14:59:26;13.00;99.90
45409;DHT22;31162;51.076;3.784;2023-01-06T15:02:14;13.00;99.90
45409;DHT22;31162;51.076;3.784;2023-01-06T15:04:42;12.90;99.90
45409;DHT22;31162;51.076;3.784;2023-01-06T15:07:17;12.80;99.90
45409;DHT22;31162;51.076;3.784;2023-01-06T15:09:44;12.90;99.90
45409;DHT22;31162;51.076;3.784;2023-01-06T15:12:27;13.00;99.90
45409;DHT22;31162;51.076;3.784;2023-01-06T15:14:53;13.30;99.90
45409;DHT22;31162;51.076;3.784;2023-01-06T15:17:20;13.40;99.90
45409;DHT22;31162;51.076;3.784;2023-01-06T15:19:46;13.40;99.90
45409;DHT22;31162;51.076;3.784;2023-01-06T15:22:18;13.30;99.90
45409;DHT22;31162;51.076;3.784;2023-01-06T15:24:45;13.30;99.90
45409;DHT22;31162;51.076;3.784;2023-01-06T15:27:14;13.30;99.90
45409;DHT22;31162;51.076;3.784;2023-01-06T15:29:54;13.20;99.90
45409;DHT22;31162;51.076;3.784;2023-01-06T15:32:25;13.20;99.90
45409;DHT22;31162;51.076;3.784;2023-01-06T15:34:53;13.20;99.90
45409;DHT22;31162;51.076;3.784;2023-01-06T15:37:25;13.10;99.90
45409;DHT22;31162;51.076;3.784;2023-01-06T15:39:52;13.00;99.90
45409;DHT22;31162;51.076;3.784;2023-01-06T15:42:21;12.80;99.90
45409;DHT22;31162;51.076;3.784;2023-01-06T15:45:01;12.90;99.90
45409;DHT22;31162;51.076;3.784;2023-01-06T15:47:34;13.00;99.90
45409;DHT22;31162;51.076;3.784;2023-01-06T15:50:05;13.10;99.90
45409;DHT22;31162;51.076;3.784;2023-01-06T15:55:29;13.10;99.90
45409;DHT22;31162;51.076;3.784;2023-01-06T15:58:23;13.00;99.90
45409;DHT22;31162;51.076;3.784;2023-01-06T16:01:01;12.90;99.90
45409;DHT22;31162;51.076;3.784;2023-01-06T16:03:30;12.80;99.90
45409;DHT22;31162;51.076;3.784;2023-01-06T16:08:31;12.70;99.90
45409;DHT22;31162;51.076;3.784;2023-01-06T16:18:44;12.60;99.90
45409;DHT22;31162;51.076;3.784;2023-01-06T16:23:56;12.70;99.90
45409;DHT22;31162;51.076;3.784;2023-01-06T16:26:26;12.70;99.90
45409;DHT22;31162;51.076;3.784;2023-01-06T16:28:58;12.60;99.90
45409;DHT22;31162;51.076;3.784;2023-01-06T16:33:52;12.70;99.90
45409;DHT22;31162;51.076;3.784;2023-01-06T16:36:19;12.70;99.90
45409;DHT22;31162;51.076;3.784;2023-01-06T16:38:45;12.70;99.90
45409;DHT22;31162;51.076;3.784;2023-01-06T16:41:18;12.50;99.90
45409;DHT22;31162;51.076;3.784;2023-01-06T16:43:45;12.50;99.90
45409;DHT22;31162;51.076;3.784;2023-01-06T16:46:22;12.50;99.90
45409;DHT22;31162;51.076;3.784;2023-01-06T16:48:53;12.50;99.90
45409;DHT22;31162;51.076;3.784;2023-01-06T16:51:18;12.30;99.90
45409;DHT22;31162;51.076;3.784;2023-01-06T16:53:44;12.30;99.90
45409;DHT22;31162;51.076;3.784;2023-01-06T16:56:21;12.30;99.90
45409;DHT22;31162;51.076;3.784;2023-01-06T16:58:51;12.30;99.90
45409;DHT22;31162;51.076;3.784;2023-01-06T17:01:20;12.30;99.90
45409;DHT22;31162;51.076;3.784;2023-01-06T17:03:56;12.30;99.90
45409;DHT22;31162;51.076;3.784;2023-01-06T17:06:26;12.30;99.90
45409;DHT22;31162;51.076;3.784;2023-01-06T17:08:58;12.30;99.90
45409;DHT22;31162;51.076;3.784;2023-01-06T17:11:26;12.40;99.90
45409;DHT22;31162;51.076;3.784;2023-01-06T17:13:56;12.30;99.90
45409;DHT22;31162;51.076;3.784;2023-01-06T17:16:23;12.20;99.90
45409;DHT22;31162;51.076;3.784;2023-01-06T17:18:59;12.20;99.90
45409;DHT22;31162;51.076;3.784;2023-01-06T17:21:34;12.20;99.90
45409;DHT22;31162;51.076;3.784;2023-01-06T17:24:23;12.20;99.90
45409;DHT22;31162;51.076;3.784;2023-01-06T17:26:56;12.10;99.90
45409;DHT22;31162;51.076;3.784;2023-01-06T17:29:24;12.20;99.90
45409;DHT22;31162;51.076;3.784;2023-01-06T17:31:54;12.20;99.90
45409;DHT22;31162;51.076;3.784;2023-01-06T17:34:22;12.20;99.90
45409;DHT22;31162;51.076;3.784;2023-01-06T17:36:49;12.30;99.90
45409;DHT22;31162;51.076;3.784;2023-01-06T17:39:21;12.20;99.90
45409;DHT22;31162;51.076;3.784;2023-01-06T17:41:48;12.20;99.90
45409;DHT22;31162;51.076;3.784;2023-01-06T17:44:18;12.10;99.90
45409;DHT22;31162;51.076;3.784;2023-01-06T17:46:46;12.10;99.90
45409;DHT22;31162;51.076;3.784;2023-01-06T17:51:44;12.00;99.90
45409;DHT22;31162;51.076;3.784;2023-01-06T17:54:18;12.00;99.90
45409;DHT22;31162;51.076;3.784;2023-01-06T17:57:14;12.00;99.90